createdAt,value
2019-05-11T00:00:50.512Z,0.00
2019-05-11T00:01:50.430Z,0.00
2019-05-11T00:02:50.455Z,0.00
2019-05-11T00:03:50.408Z,0.00
2019-05-11T00:04:50.401Z,0.00
2019-05-11T00:05:50.385Z,0.00
2019-05-11T00:06:50.440Z,0.00
2019-05-11T00:07:50.367Z,0.00
2019-05-11T00:08:50.351Z,0.00
2019-05-11T00:09:58.134Z,0.00
2019-05-11T00:10:51.326Z,0.00
2019-05-11T00:11:50.315Z,0.00
2019-05-11T00:12:50.367Z,0.00
2019-05-11T00:13:50.293Z,0.00
2019-05-11T00:14:50.286Z,0.00
2019-05-11T00:15:50.270Z,0.00
2019-05-11T00:16:50.259Z,0.00
2019-05-11T00:17:50.249Z,0.00
2019-05-11T00:18:50.313Z,0.00
2019-05-11T00:19:50.226Z,0.00
2019-05-11T00:20:50.213Z,0.00
2019-05-11T00:21:50.201Z,0.00
2019-05-11T00:22:50.190Z,0.00
2019-05-11T00:23:50.180Z,0.00
2019-05-11T00:24:50.239Z,0.00
2019-05-11T00:25:50.157Z,0.00
2019-05-11T00:26:50.146Z,0.00
2019-05-11T00:27:50.135Z,0.00
2019-05-11T00:28:50.125Z,0.00
2019-05-11T00:29:50.116Z,0.00
2019-05-11T00:30:50.168Z,0.00
2019-05-11T00:31:50.144Z,0.00
2019-05-11T00:32:50.085Z,0.00
2019-05-11T00:33:50.067Z,0.00
2019-05-11T00:34:50.057Z,0.00
2019-05-11T00:35:50.044Z,0.00
2019-05-11T00:36:50.096Z,0.00
2019-05-11T00:37:50.026Z,0.00
2019-05-11T00:38:50.122Z,0.00
2019-05-11T00:39:49.998Z,0.00
2019-05-11T00:40:49.987Z,0.00
2019-05-11T00:41:49.976Z,0.00
2019-05-11T00:42:50.036Z,0.00
2019-05-11T00:43:49.955Z,0.00
2019-05-11T00:44:49.941Z,0.00
2019-05-11T00:45:49.932Z,0.00
2019-05-11T00:46:49.959Z,0.00
2019-05-11T00:47:49.908Z,0.00
2019-05-11T00:48:49.965Z,0.00
2019-05-11T00:49:49.885Z,0.00
2019-05-11T00:50:49.880Z,0.00
2019-05-11T00:51:49.861Z,0.00
2019-05-11T00:52:49.852Z,0.00
2019-05-11T00:53:49.855Z,0.00
2019-05-11T00:54:49.921Z,0.00
2019-05-11T00:55:49.816Z,0.00
2019-05-11T00:56:49.806Z,0.00
2019-05-11T00:57:49.801Z,0.00
2019-05-11T00:58:51.010Z,0.00
2019-05-11T00:59:49.771Z,0.00
2019-05-11T01:00:49.823Z,0.00
2019-05-11T01:01:49.749Z,0.00
2019-05-11T01:02:49.738Z,0.00
2019-05-11T01:03:49.729Z,0.00
2019-05-11T01:04:49.743Z,0.00
2019-05-11T01:05:49.704Z,0.00
2019-05-11T01:06:49.755Z,0.00
2019-05-11T01:07:49.681Z,0.00
2019-05-11T01:08:49.672Z,0.00
2019-05-11T01:09:49.658Z,0.00
2019-05-11T01:10:49.648Z,0.00
2019-05-11T01:11:49.636Z,0.00
2019-05-11T01:12:49.687Z,0.00
2019-05-11T01:13:49.611Z,0.00
2019-05-11T01:14:49.601Z,0.00
2019-05-11T01:15:49.592Z,0.00
2019-05-11T01:16:49.579Z,0.00
2019-05-11T01:17:49.571Z,0.00
2019-05-11T01:18:49.621Z,0.00
2019-05-11T01:19:49.549Z,0.00
2019-05-11T01:20:49.539Z,0.00
2019-05-11T01:21:49.523Z,0.00
2019-05-11T01:22:49.512Z,0.00
2019-05-11T01:23:49.500Z,0.00
2019-05-11T01:24:49.556Z,0.00
2019-05-11T01:25:49.476Z,0.00
2019-05-11T01:26:49.465Z,0.00
2019-05-11T01:27:49.454Z,0.00
2019-05-11T01:28:49.444Z,0.00
2019-05-11T01:29:49.433Z,0.00
2019-05-11T01:30:49.485Z,0.00
2019-05-11T01:31:49.412Z,0.00
2019-05-11T01:32:49.398Z,0.00
2019-05-11T01:33:49.386Z,0.00
2019-05-11T01:34:49.376Z,0.00
2019-05-11T01:35:51.232Z,0.00
2019-05-11T01:36:49.415Z,0.00
2019-05-11T01:37:49.342Z,0.00
2019-05-11T01:38:49.331Z,0.00
2019-05-11T01:39:49.320Z,0.00
2019-05-11T01:40:58.111Z,0.00
2019-05-11T01:41:50.356Z,0.00
2019-05-11T01:42:49.287Z,0.00
2019-05-11T01:43:49.273Z,0.00
2019-05-11T01:44:49.261Z,0.00
2019-05-11T01:45:49.252Z,0.00
2019-05-11T01:46:49.240Z,0.00
2019-05-11T01:47:49.316Z,0.00
2019-05-11T01:48:49.216Z,0.00
2019-05-11T01:49:49.204Z,0.00
2019-05-11T01:50:49.193Z,0.00
2019-05-11T01:51:49.186Z,0.00
2019-05-11T01:52:49.171Z,0.00
2019-05-11T01:53:49.231Z,0.00
2019-05-11T01:54:49.148Z,0.00
2019-05-11T01:55:49.136Z,0.00
2019-05-11T01:56:49.126Z,0.00
2019-05-11T01:57:49.114Z,0.00
2019-05-11T01:58:49.104Z,0.00
2019-05-11T01:59:49.161Z,0.00
2019-05-11T02:00:49.079Z,0.00
2019-05-11T02:01:49.069Z,0.00
2019-05-11T02:02:49.061Z,0.00
2019-05-11T02:03:49.051Z,0.00
2019-05-11T02:04:49.034Z,0.00
2019-05-11T02:05:51.623Z,0.00
2019-05-11T02:06:49.016Z,0.00
2019-05-11T02:07:49.004Z,0.00
2019-05-11T02:08:48.989Z,0.00
2019-05-11T02:09:48.977Z,0.00
2019-05-11T02:10:48.970Z,0.00
2019-05-11T02:11:49.024Z,0.00
2019-05-11T02:12:48.947Z,0.00
2019-05-11T02:13:48.932Z,0.00
2019-05-11T02:14:48.926Z,0.00
2019-05-11T02:15:48.910Z,0.00
2019-05-11T02:16:48.898Z,0.00
2019-05-11T02:17:48.954Z,0.00
2019-05-11T02:18:48.876Z,0.00
2019-05-11T02:19:48.866Z,0.00
2019-05-11T02:20:48.853Z,0.00
2019-05-11T02:21:48.842Z,0.00
2019-05-11T02:22:48.832Z,0.00
2019-05-11T02:23:48.892Z,0.00
2019-05-11T02:24:48.808Z,0.00
2019-05-11T02:25:48.798Z,0.00
2019-05-11T02:26:48.786Z,0.00
2019-05-11T02:27:48.775Z,0.00
2019-05-11T02:28:48.763Z,0.00
2019-05-11T02:29:48.822Z,0.00
2019-05-11T02:30:48.742Z,0.00
2019-05-11T02:31:48.734Z,0.00
2019-05-11T02:32:48.868Z,0.00
2019-05-11T02:33:48.706Z,0.00
2019-05-11T02:34:48.695Z,0.00
2019-05-11T02:35:48.771Z,0.00
2019-05-11T02:36:48.721Z,0.00
2019-05-11T02:37:48.668Z,0.00
2019-05-11T02:38:48.655Z,0.00
2019-05-11T02:39:48.639Z,0.00
2019-05-11T02:40:48.627Z,0.00
2019-05-11T02:41:48.688Z,0.00
2019-05-11T02:42:48.603Z,0.00
2019-05-11T02:43:48.597Z,0.00
2019-05-11T02:44:48.581Z,0.00
2019-05-11T02:45:48.571Z,0.00
2019-05-11T02:46:48.609Z,0.00
2019-05-11T02:47:48.619Z,0.00
2019-05-11T02:48:48.538Z,0.00
2019-05-11T02:49:48.526Z,0.00
2019-05-11T02:50:48.515Z,0.00
2019-05-11T02:51:48.503Z,0.00
2019-05-11T02:52:48.490Z,0.00
2019-05-11T02:53:48.549Z,0.00
2019-05-11T02:54:48.468Z,0.00
2019-05-11T02:55:48.459Z,0.00
2019-05-11T02:56:48.444Z,0.00
2019-05-11T02:57:48.434Z,0.00
2019-05-11T02:58:48.424Z,0.00
2019-05-11T02:59:48.482Z,0.00
2019-05-11T03:00:48.403Z,0.00
2019-05-11T03:01:48.388Z,4.00
2019-05-11T03:02:48.394Z,4.00
2019-05-11T03:03:48.367Z,0.00
2019-05-11T03:04:48.359Z,4.00
2019-05-11T03:05:48.421Z,4.00
2019-05-11T03:06:48.333Z,4.00
2019-05-11T03:07:48.322Z,4.00
2019-05-11T03:08:48.311Z,4.00
2019-05-11T03:09:48.301Z,8.00
2019-05-11T03:10:48.287Z,8.00
2019-05-11T03:11:55.603Z,8.00
2019-05-11T03:12:49.370Z,12.00
2019-05-11T03:13:48.252Z,12.00
2019-05-11T03:14:48.243Z,16.00
2019-05-11T03:15:48.231Z,20.00
2019-05-11T03:16:48.219Z,20.00
2019-05-11T03:17:48.277Z,28.00
2019-05-11T03:18:48.197Z,28.00
2019-05-11T03:19:48.187Z,32.00
2019-05-11T03:20:48.174Z,36.00
2019-05-11T03:21:48.164Z,44.00
2019-05-11T03:22:48.154Z,48.00
2019-05-11T03:23:48.207Z,52.00
2019-05-11T03:24:48.129Z,56.00
2019-05-11T03:25:48.117Z,68.00
2019-05-11T03:26:48.105Z,76.00
2019-05-11T03:27:48.094Z,84.00
2019-05-11T03:28:48.082Z,88.00
2019-05-11T03:29:48.141Z,96.00
2019-05-11T03:30:48.061Z,108.00
2019-05-11T03:31:48.051Z,120.00
2019-05-11T03:32:48.058Z,132.00
2019-05-11T03:33:48.029Z,148.00
2019-05-11T03:34:48.028Z,164.00
2019-05-11T03:35:48.076Z,184.00
2019-05-11T03:36:47.994Z,208.00
2019-05-11T03:37:47.981Z,228.00
2019-05-11T03:38:47.972Z,248.00
2019-05-11T03:39:47.959Z,264.00
2019-05-11T03:40:47.948Z,272.00
2019-05-11T03:41:48.005Z,280.00
2019-05-11T03:42:47.924Z,288.00
2019-05-11T03:43:47.914Z,304.00
2019-05-11T03:44:47.903Z,332.00
2019-05-11T03:45:47.892Z,360.00
2019-05-11T03:46:47.879Z,388.00
2019-05-11T03:47:47.939Z,404.00
2019-05-11T03:48:47.857Z,412.00
2019-05-11T03:49:47.848Z,404.00
2019-05-11T03:50:47.837Z,384.00
2019-05-11T03:51:47.828Z,360.00
2019-05-11T03:52:47.814Z,344.00
2019-05-11T03:53:47.868Z,320.00
2019-05-11T03:54:47.791Z,308.00
2019-05-11T03:55:47.779Z,312.00
2019-05-11T03:56:47.767Z,328.00
2019-05-11T03:57:47.755Z,336.00
2019-05-11T03:58:47.743Z,348.00
2019-05-11T03:59:47.803Z,356.00
2019-05-11T04:00:47.728Z,352.00
2019-05-11T04:01:47.711Z,364.00
2019-05-11T04:02:47.699Z,368.00
2019-05-11T04:03:47.692Z,376.00
2019-05-11T04:04:47.681Z,376.00
2019-05-11T04:05:47.733Z,376.00
2019-05-11T04:06:47.654Z,388.00
2019-05-11T04:07:47.643Z,408.00
2019-05-11T04:08:47.629Z,432.00
2019-05-11T04:09:47.625Z,468.00
2019-05-11T04:10:47.607Z,500.00
2019-05-11T04:11:47.668Z,528.00
2019-05-11T04:12:47.583Z,560.00
2019-05-11T04:13:47.574Z,596.00
2019-05-11T04:14:47.561Z,624.00
2019-05-11T04:15:47.552Z,644.00
2019-05-11T04:16:47.540Z,668.00
2019-05-11T04:17:47.601Z,708.00
2019-05-11T04:18:47.518Z,756.00
2019-05-11T04:19:47.507Z,788.00
2019-05-11T04:20:47.492Z,776.00
2019-05-11T04:21:47.483Z,760.00
2019-05-11T04:22:47.475Z,744.00
2019-05-11T04:23:47.527Z,724.00
2019-05-11T04:24:47.455Z,740.00
2019-05-11T04:25:47.437Z,784.00
2019-05-11T04:26:47.428Z,856.00
2019-05-11T04:27:47.419Z,928.00
2019-05-11T04:28:47.404Z,1004.00
2019-05-11T04:29:47.461Z,1068.00
2019-05-11T04:30:47.384Z,1108.00
2019-05-11T04:31:47.369Z,1144.00
2019-05-11T04:32:47.362Z,1180.00
2019-05-11T04:33:47.354Z,1220.00
2019-05-11T04:34:47.341Z,1260.00
2019-05-11T04:35:47.419Z,1316.00
2019-05-11T04:36:47.315Z,1348.00
2019-05-11T04:37:47.300Z,1384.00
2019-05-11T04:38:47.291Z,1384.00
2019-05-11T04:39:47.279Z,1340.00
2019-05-11T04:40:47.268Z,1312.00
2019-05-11T04:41:47.325Z,1328.00
2019-05-11T04:42:55.244Z,1364.00
2019-05-11T04:43:48.235Z,1408.00
2019-05-11T04:44:51.642Z,1440.00
2019-05-11T04:45:48.210Z,1456.00
2019-05-11T04:46:47.203Z,1476.00
2019-05-11T04:47:47.266Z,1496.00
2019-05-11T04:48:47.187Z,1496.00
2019-05-11T04:49:47.186Z,1532.00
2019-05-11T04:50:47.152Z,1584.00
2019-05-11T04:51:47.144Z,1628.00
2019-05-11T04:52:47.131Z,1648.00
2019-05-11T04:53:47.200Z,1652.00
2019-05-11T04:54:47.154Z,1648.00
2019-05-11T04:55:47.100Z,1652.00
2019-05-11T04:56:47.089Z,1680.00
2019-05-11T04:57:47.076Z,1704.00
2019-05-11T04:58:47.063Z,1724.00
2019-05-11T04:59:47.120Z,1748.00
2019-05-11T05:00:47.041Z,1784.00
2019-05-11T05:01:47.033Z,1848.00
2019-05-11T05:02:47.017Z,1952.00
2019-05-11T05:03:53.452Z,2024.00
2019-05-11T05:04:48.066Z,2076.00
2019-05-11T05:05:47.005Z,2112.00
2019-05-11T05:06:59.046Z,2132.00
2019-05-11T05:07:50.430Z,2152.00
2019-05-11T05:08:46.947Z,2176.00
2019-05-11T05:09:46.938Z,2192.00
2019-05-11T05:10:46.998Z,2188.00
2019-05-11T05:11:46.914Z,2164.00
2019-05-11T05:12:51.383Z,2132.00
2019-05-11T05:13:47.891Z,2064.00
2019-05-11T05:14:46.879Z,2000.00
2019-05-11T05:15:46.870Z,1940.00
2019-05-11T05:16:46.925Z,1908.00
2019-05-11T05:17:46.846Z,1904.00
2019-05-11T05:18:46.859Z,1916.00
2019-05-11T05:19:46.825Z,1936.00
2019-05-11T05:20:46.812Z,1980.00
2019-05-11T05:21:46.806Z,2048.00
2019-05-11T05:22:46.855Z,2148.00
2019-05-11T05:23:46.781Z,2276.00
2019-05-11T05:24:46.768Z,2404.00
2019-05-11T05:25:46.755Z,2544.00
2019-05-11T05:26:46.749Z,2644.00
2019-05-11T05:27:46.731Z,2788.00
2019-05-11T05:28:46.832Z,2944.00
2019-05-11T05:29:46.709Z,3124.00
2019-05-11T05:30:46.699Z,3272.00
2019-05-11T05:31:46.686Z,3364.00
2019-05-11T05:32:46.678Z,3444.00
2019-05-11T05:33:46.665Z,3544.00
2019-05-11T05:34:46.722Z,3692.00
2019-05-11T05:35:46.640Z,3880.00
2019-05-11T05:36:46.631Z,4064.00
2019-05-11T05:37:46.688Z,4288.00
2019-05-11T05:38:46.607Z,4484.00
2019-05-11T05:39:46.595Z,4636.00
2019-05-11T05:40:46.659Z,4752.00
2019-05-11T05:41:56.633Z,4868.00
2019-05-11T05:42:47.562Z,4924.00
2019-05-11T05:43:46.556Z,4988.00
2019-05-11T05:44:46.539Z,5016.00
2019-05-11T05:45:46.527Z,5036.00
2019-05-11T05:46:46.606Z,5028.00
2019-05-11T05:47:46.508Z,4908.00
2019-05-11T05:48:46.497Z,4700.00
2019-05-11T05:49:46.478Z,4528.00
2019-05-11T05:50:46.468Z,4428.00
2019-05-11T05:51:46.454Z,4500.00
2019-05-11T05:52:46.512Z,4712.00
2019-05-11T05:53:46.436Z,5028.00
2019-05-11T05:54:46.421Z,5316.00
2019-05-11T05:55:46.409Z,5424.00
2019-05-11T05:56:46.398Z,5472.00
2019-05-11T05:57:46.401Z,5576.00
2019-05-11T05:58:46.450Z,5580.00
2019-05-11T05:59:46.362Z,5584.00
2019-05-11T06:00:46.354Z,5600.00
2019-05-11T06:01:46.349Z,5608.00
2019-05-11T06:02:46.329Z,5560.00
2019-05-11T06:03:46.319Z,5460.00
2019-05-11T06:04:46.375Z,5296.00
2019-05-11T06:05:46.298Z,5156.00
2019-05-11T06:06:46.282Z,5000.00
2019-05-11T06:07:46.272Z,4904.00
2019-05-11T06:08:46.260Z,4840.00
2019-05-11T06:09:46.251Z,4796.00
2019-05-11T06:10:46.311Z,4780.00
2019-05-11T06:11:46.227Z,4788.00
2019-05-11T06:12:46.217Z,4904.00
2019-05-11T06:13:46.202Z,4960.00
2019-05-11T06:14:46.191Z,4964.00
2019-05-11T06:15:46.178Z,4888.00
2019-05-11T06:16:46.238Z,4764.00
2019-05-11T06:17:46.159Z,4636.00
2019-05-11T06:18:46.149Z,4500.00
2019-05-11T06:19:46.134Z,4420.00
2019-05-11T06:20:46.130Z,4408.00
2019-05-11T06:21:46.131Z,4500.00
2019-05-11T06:22:46.185Z,4692.00
2019-05-11T06:23:46.087Z,4972.00
2019-05-11T06:24:46.079Z,5292.00
2019-05-11T06:25:46.064Z,5644.00
2019-05-11T06:26:46.052Z,5836.00
2019-05-11T06:27:46.058Z,5940.00
2019-05-11T06:28:46.104Z,5996.00
2019-05-11T06:29:46.021Z,6176.00
2019-05-11T06:30:46.011Z,6304.00
2019-05-11T06:31:45.995Z,6384.00
2019-05-11T06:32:45.989Z,6572.00
2019-05-11T06:33:45.974Z,6732.00
2019-05-11T06:34:46.028Z,6972.00
2019-05-11T06:35:45.966Z,7196.00
2019-05-11T06:36:46.091Z,7320.00
2019-05-11T06:37:45.928Z,7512.00
2019-05-11T06:38:45.915Z,7592.00
2019-05-11T06:39:45.904Z,7524.00
2019-05-11T06:40:45.967Z,7436.00
2019-05-11T06:41:45.883Z,7436.00
2019-05-11T06:42:45.871Z,7200.00
2019-05-11T06:44:00.799Z,6968.00
2019-05-11T06:44:46.851Z,6884.00
2019-05-11T06:45:45.836Z,6936.00
2019-05-11T06:46:45.899Z,6996.00
2019-05-11T06:47:45.814Z,7148.00
2019-05-11T06:48:45.812Z,7064.00
2019-05-11T06:49:45.801Z,6880.00
2019-05-11T06:50:45.782Z,6652.00
2019-05-11T06:51:45.768Z,6416.00
2019-05-11T06:52:45.832Z,6360.00
2019-05-11T06:53:45.745Z,6092.00
2019-05-11T06:54:45.735Z,5872.00
2019-05-11T06:55:45.727Z,5632.00
2019-05-11T06:56:45.715Z,5476.00
2019-05-11T06:57:45.702Z,5248.00
2019-05-11T06:58:45.813Z,5096.00
2019-05-11T06:59:45.678Z,5088.00
2019-05-11T07:00:45.694Z,5232.00
2019-05-11T07:01:45.661Z,5432.00
2019-05-11T07:02:45.645Z,5752.00
2019-05-11T07:03:45.632Z,6032.00
2019-05-11T07:04:45.697Z,6280.00
2019-05-11T07:05:45.609Z,6504.00
2019-05-11T07:06:45.600Z,6604.00
2019-05-11T07:07:47.865Z,6712.00
2019-05-11T07:08:45.580Z,6732.00
2019-05-11T07:09:45.562Z,6680.00
2019-05-11T07:10:45.623Z,6768.00
2019-05-11T07:11:45.537Z,6620.00
2019-05-11T07:12:45.530Z,6320.00
2019-05-11T07:13:45.521Z,6172.00
2019-05-11T07:14:45.503Z,6200.00
2019-05-11T07:15:45.492Z,5952.00
2019-05-11T07:16:45.556Z,6076.00
2019-05-11T07:17:45.478Z,6048.00
2019-05-11T07:18:45.461Z,6184.00
2019-05-11T07:19:47.478Z,6328.00
2019-05-11T07:20:50.417Z,6376.00
2019-05-11T07:21:46.504Z,6420.00
2019-05-11T07:22:45.415Z,6220.00
2019-05-11T07:23:45.411Z,5960.00
2019-05-11T07:24:45.459Z,5708.00
2019-05-11T07:25:45.380Z,5572.00
2019-05-11T07:26:45.375Z,5856.00
2019-05-11T07:27:45.427Z,6204.00
2019-05-11T07:28:45.348Z,6272.00
2019-05-11T07:29:45.332Z,6132.00
2019-05-11T07:30:45.326Z,6000.00
2019-05-11T07:31:45.331Z,5908.00
2019-05-11T07:32:45.298Z,5576.00
2019-05-11T07:33:45.359Z,5704.00
2019-05-11T07:34:45.280Z,6028.00
2019-05-11T07:35:47.698Z,6292.00
2019-05-11T07:36:47.587Z,6808.00
2019-05-11T07:37:47.697Z,7532.00
2019-05-11T07:38:45.230Z,7956.00
2019-05-11T07:39:45.286Z,8312.00
2019-05-11T07:40:47.528Z,8936.00
2019-05-11T07:41:45.195Z,9504.00
2019-05-11T07:42:45.185Z,10456.00
2019-05-11T07:43:45.176Z,11072.00
2019-05-11T07:44:45.161Z,11548.00
2019-05-11T07:45:45.230Z,12148.00
2019-05-11T07:46:45.140Z,12572.00
2019-05-11T07:47:45.127Z,12948.00
2019-05-11T07:48:45.115Z,13416.00
2019-05-11T07:49:45.105Z,14040.00
2019-05-11T07:50:45.093Z,14360.00
2019-05-11T07:51:45.152Z,14620.00
2019-05-11T07:52:45.082Z,14792.00
2019-05-11T07:53:45.057Z,14616.00
2019-05-11T07:54:45.060Z,14064.00
2019-05-11T07:55:45.036Z,13468.00
2019-05-11T07:56:45.023Z,12556.00
2019-05-11T07:57:45.086Z,11164.00
2019-05-11T07:58:45.003Z,10528.00
2019-05-11T07:59:45.004Z,11308.00
2019-05-11T08:00:44.978Z,12240.00
2019-05-11T08:01:44.963Z,12164.00
2019-05-11T08:02:44.955Z,13052.00
2019-05-11T08:03:45.011Z,12744.00
2019-05-11T08:04:44.943Z,14612.00
2019-05-11T08:05:44.919Z,14948.00
2019-05-11T08:06:44.914Z,14000.00
2019-05-11T08:07:44.895Z,10468.00
2019-05-11T08:08:44.881Z,9968.00
2019-05-11T08:09:44.941Z,8476.00
2019-05-11T08:10:44.862Z,8428.00
2019-05-11T08:11:44.849Z,8104.00
2019-05-11T08:12:44.853Z,7824.00
2019-05-11T08:13:44.826Z,7624.00
2019-05-11T08:14:59.122Z,7592.00
2019-05-11T08:15:45.872Z,8876.00
2019-05-11T08:16:44.793Z,9024.00
2019-05-11T08:17:44.783Z,8508.00
2019-05-11T08:18:44.772Z,8612.00
2019-05-11T08:19:44.848Z,8456.00
2019-05-11T08:20:44.742Z,7924.00
2019-05-11T08:21:45.048Z,6064.00
2019-05-11T08:22:44.720Z,5308.00
2019-05-11T08:23:44.712Z,5740.00
2019-05-11T08:24:44.696Z,7064.00
2019-05-11T08:25:44.778Z,7024.00
2019-05-11T08:26:44.676Z,7496.00
2019-05-11T08:27:44.738Z,8792.00
2019-05-11T08:28:44.649Z,9548.00
2019-05-11T08:29:44.650Z,9748.00
2019-05-11T08:30:44.626Z,9188.00
2019-05-11T08:31:44.616Z,8264.00
2019-05-11T08:32:44.633Z,7304.00
2019-05-11T08:33:44.672Z,8336.00
2019-05-11T08:34:44.583Z,9564.00
2019-05-11T08:35:44.600Z,8536.00
2019-05-11T08:36:44.557Z,7644.00
2019-05-11T08:37:44.547Z,7204.00
2019-05-11T08:38:44.573Z,7212.00
2019-05-11T08:39:44.601Z,7860.00
2019-05-11T08:40:44.521Z,8756.00
2019-05-11T08:41:44.510Z,8592.00
2019-05-11T08:42:44.496Z,8444.00
2019-05-11T08:43:44.481Z,7500.00
2019-05-11T08:44:44.468Z,6840.00
2019-05-11T08:45:44.525Z,7416.00
2019-05-11T08:46:44.454Z,7832.00
2019-05-11T08:47:44.437Z,8668.00
2019-05-11T08:48:44.422Z,8692.00
2019-05-11T08:49:44.451Z,8648.00
2019-05-11T08:50:44.438Z,9068.00
2019-05-11T08:51:44.454Z,9192.00
2019-05-11T08:52:44.380Z,10028.00
2019-05-11T08:53:44.424Z,10356.00
2019-05-11T08:54:44.370Z,10704.00
2019-05-11T08:55:44.337Z,10488.00
2019-05-11T08:56:44.334Z,10008.00
2019-05-11T08:57:44.405Z,10240.00
2019-05-11T08:58:44.303Z,10372.00
2019-05-11T08:59:44.295Z,10732.00
2019-05-11T09:00:44.280Z,10204.00
2019-05-11T09:01:44.803Z,10416.00
2019-05-11T09:02:46.848Z,9812.00
2019-05-11T09:03:47.618Z,9688.00
2019-05-11T09:04:44.238Z,8820.00
2019-05-11T09:05:44.244Z,8556.00
2019-05-11T09:06:44.217Z,8460.00
2019-05-11T09:07:44.200Z,8668.00
2019-05-11T09:08:44.216Z,9300.00
2019-05-11T09:09:44.245Z,9696.00
2019-05-11T09:10:44.182Z,10236.00
2019-05-11T09:11:44.169Z,10596.00
2019-05-11T09:12:44.145Z,10744.00
2019-05-11T09:13:44.130Z,11180.00
2019-05-11T09:14:44.131Z,11252.00
2019-05-11T09:15:44.191Z,11572.00
2019-05-11T09:16:44.096Z,11412.00
2019-05-11T09:17:44.144Z,11192.00
2019-05-11T09:18:44.084Z,11076.00
2019-05-11T09:19:44.066Z,10956.00
2019-05-11T09:20:44.062Z,10840.00
2019-05-11T09:21:44.106Z,11048.00
2019-05-11T09:22:44.026Z,11096.00
2019-05-11T09:23:44.048Z,10876.00
2019-05-11T09:24:44.006Z,10816.00
2019-05-11T09:25:44.000Z,10748.00
2019-05-11T09:26:43.979Z,10680.00
2019-05-11T09:27:44.067Z,11044.00
2019-05-11T09:28:43.965Z,11272.00
2019-05-11T09:29:44.135Z,12016.00
2019-05-11T09:30:43.937Z,12808.00
2019-05-11T09:31:43.921Z,12088.00
2019-05-11T09:32:43.910Z,12632.00
2019-05-11T09:33:43.971Z,10788.00
2019-05-11T09:34:43.892Z,9108.00
2019-05-11T09:35:50.118Z,7980.00
2019-05-11T09:36:44.874Z,7180.00
2019-05-11T09:37:43.854Z,6480.00
2019-05-11T09:38:43.840Z,6568.00
2019-05-11T09:39:43.938Z,6088.00
2019-05-11T09:40:43.823Z,6012.00
2019-05-11T09:41:43.804Z,6320.00
2019-05-11T09:42:43.830Z,5496.00
2019-05-11T09:43:43.782Z,5396.00
2019-05-11T09:44:43.771Z,6236.00
2019-05-11T09:45:48.525Z,8032.00
2019-05-11T09:46:44.759Z,8980.00
2019-05-11T09:47:43.736Z,10220.00
2019-05-11T09:48:43.739Z,12204.00
2019-05-11T09:49:47.790Z,14820.00
2019-05-11T09:50:44.780Z,14812.00
2019-05-11T09:51:43.702Z,12352.00
2019-05-11T09:52:43.677Z,13216.00
2019-05-11T09:53:43.667Z,13692.00
2019-05-11T09:54:43.659Z,18432.00
2019-05-11T09:55:43.662Z,20032.00
2019-05-11T09:56:43.703Z,22016.00
2019-05-11T09:57:43.621Z,19584.00
2019-05-11T09:58:43.613Z,20000.00
2019-05-11T09:59:43.598Z,16224.00
2019-05-11T10:00:43.597Z,18784.00
2019-05-11T10:01:43.611Z,20320.00
2019-05-11T10:02:43.633Z,23104.00
2019-05-11T10:03:43.553Z,21120.00
2019-05-11T10:04:43.575Z,18432.00
2019-05-11T10:05:43.531Z,19200.00
2019-05-11T10:06:43.524Z,19648.00
2019-05-11T10:07:43.506Z,16640.00
2019-05-11T10:08:43.572Z,17696.00
2019-05-11T10:09:43.483Z,16288.00
2019-05-11T10:10:43.557Z,16928.00
2019-05-11T10:11:43.464Z,18400.00
2019-05-11T10:12:43.455Z,18144.00
2019-05-11T10:13:43.437Z,18144.00
2019-05-11T10:14:43.500Z,15064.00
2019-05-11T10:15:43.415Z,12532.00
2019-05-11T10:16:43.439Z,14108.00
2019-05-11T10:17:43.393Z,16008.00
2019-05-11T10:18:43.382Z,15900.00
2019-05-11T10:19:43.368Z,14976.00
2019-05-11T10:20:43.441Z,13844.00
2019-05-11T10:21:43.346Z,11800.00
2019-05-11T10:22:43.352Z,11072.00
2019-05-11T10:23:43.325Z,10544.00
2019-05-11T10:24:43.314Z,9012.00
2019-05-11T10:25:43.297Z,8692.00
2019-05-11T10:26:43.379Z,8920.00
2019-05-11T10:27:43.277Z,7804.00
2019-05-11T10:28:43.281Z,9136.00
2019-05-11T10:29:43.251Z,8992.00
2019-05-11T10:30:43.239Z,8584.00
2019-05-11T10:31:43.247Z,8232.00
2019-05-11T10:32:43.291Z,9740.00
2019-05-11T10:33:43.211Z,9948.00
2019-05-11T10:34:43.253Z,8544.00
2019-05-11T10:35:43.183Z,9944.00
2019-05-11T10:36:43.179Z,9748.00
2019-05-11T10:37:43.161Z,9976.00
2019-05-11T10:38:43.217Z,12092.00
2019-05-11T10:39:43.152Z,14288.00
2019-05-11T10:40:43.127Z,16012.00
2019-05-11T10:41:43.120Z,15860.00
2019-05-11T10:42:43.107Z,17056.00
2019-05-11T10:43:43.093Z,16896.00
2019-05-11T10:44:43.159Z,15392.00
2019-05-11T10:45:43.081Z,16608.00
2019-05-11T10:46:43.058Z,17568.00
2019-05-11T10:47:43.049Z,18176.00
2019-05-11T10:48:43.036Z,19808.00
2019-05-11T10:49:43.023Z,20448.00
2019-05-11T10:50:43.086Z,20192.00
2019-05-11T10:51:43.010Z,20640.00
2019-05-11T10:52:42.992Z,20416.00
2019-05-11T10:53:42.979Z,20032.00
2019-05-11T10:54:42.966Z,19520.00
2019-05-11T10:55:42.958Z,18176.00
2019-05-11T10:56:43.016Z,19552.00
2019-05-11T10:57:42.948Z,19744.00
2019-05-11T10:58:42.922Z,18880.00
2019-05-11T10:59:42.909Z,18528.00
2019-05-11T11:00:42.895Z,16864.00
2019-05-11T11:01:42.889Z,14516.00
2019-05-11T11:02:42.951Z,15652.00
2019-05-11T11:03:42.901Z,15772.00
2019-05-11T11:04:42.866Z,15816.00
2019-05-11T11:05:42.837Z,15500.00
2019-05-11T11:06:42.832Z,14204.00
2019-05-11T11:07:42.817Z,13528.00
2019-05-11T11:08:42.890Z,14940.00
2019-05-11T11:09:42.796Z,15044.00
2019-05-11T11:10:42.786Z,13768.00
2019-05-11T11:11:42.771Z,12464.00
2019-05-11T11:12:42.763Z,13696.00
2019-05-11T11:13:42.747Z,13948.00
2019-05-11T11:14:42.824Z,13888.00
2019-05-11T11:15:42.732Z,14416.00
2019-05-11T11:16:43.071Z,15464.00
2019-05-11T11:17:42.706Z,15376.00
2019-05-11T11:18:42.688Z,14920.00
2019-05-11T11:19:42.684Z,14544.00
2019-05-11T11:20:42.754Z,14108.00
2019-05-11T11:21:42.656Z,13652.00
2019-05-11T11:22:44.206Z,13424.00
2019-05-11T11:23:42.630Z,13284.00
2019-05-11T11:24:42.619Z,13256.00
2019-05-11T11:25:42.611Z,13316.00
2019-05-11T11:26:42.689Z,12972.00
2019-05-11T11:27:42.606Z,12608.00
2019-05-11T11:28:42.585Z,12208.00
2019-05-11T11:29:42.563Z,11320.00
2019-05-11T11:30:42.550Z,10840.00
2019-05-11T11:31:42.547Z,10016.00
2019-05-11T11:32:42.603Z,9648.00
2019-05-11T11:33:42.523Z,9468.00
2019-05-11T11:34:42.522Z,9048.00
2019-05-11T11:35:42.500Z,8548.00
2019-05-11T11:36:42.484Z,9332.00
2019-05-11T11:37:42.471Z,9360.00
2019-05-11T11:38:42.566Z,8376.00
2019-05-11T11:39:42.450Z,9064.00
2019-05-11T11:40:42.998Z,9292.00
2019-05-11T11:41:42.439Z,9592.00
2019-05-11T11:42:42.413Z,9824.00
2019-05-11T11:43:42.410Z,9620.00
2019-05-11T11:44:42.462Z,9376.00
2019-05-11T11:45:42.482Z,9036.00
2019-05-11T11:46:52.102Z,9628.00
2019-05-11T11:47:43.359Z,9668.00
2019-05-11T11:48:42.354Z,9080.00
2019-05-11T11:49:42.333Z,9360.00
2019-05-11T11:50:42.403Z,9704.00
2019-05-11T11:51:42.314Z,9144.00
2019-05-11T11:52:44.993Z,8700.00
2019-05-11T11:53:42.290Z,8464.00
2019-05-11T11:54:42.276Z,7444.00
2019-05-11T11:55:42.319Z,7600.00
2019-05-11T11:56:42.343Z,8532.00
2019-05-11T11:57:42.243Z,10184.00
2019-05-11T11:58:42.233Z,12240.00
2019-05-11T11:59:42.232Z,14464.00
2019-05-11T12:00:42.214Z,16108.00
2019-05-11T12:01:42.201Z,17024.00
2019-05-11T12:02:42.273Z,17248.00
2019-05-11T12:03:42.178Z,16832.00
2019-05-11T12:04:42.165Z,16544.00
2019-05-11T12:05:42.151Z,17600.00
2019-05-11T12:06:42.141Z,19040.00
2019-05-11T12:07:42.162Z,21536.00
2019-05-11T12:08:42.193Z,25440.00
2019-05-11T12:09:42.107Z,30784.00
2019-05-11T12:10:42.097Z,32352.00
2019-05-11T12:11:42.084Z,32672.00
2019-05-11T12:12:42.074Z,28576.00
2019-05-11T12:13:42.061Z,20608.00
2019-05-11T12:14:42.135Z,15552.00
2019-05-11T12:15:42.035Z,12956.00
2019-05-11T12:16:42.085Z,11704.00
2019-05-11T12:17:42.030Z,11236.00
2019-05-11T12:18:42.004Z,11236.00
2019-05-11T12:19:41.991Z,11308.00
2019-05-11T12:20:42.169Z,11472.00